sensor_id;sensor_type;location;lat;lon;timestamp;pressure;altitude;pressure_sealevel;temperature;humidity
5574;BME280;2563;52.242;7.956;2022-12-18T00:01:02;102093.81;;;-10.37;100.00
5574;BME280;2563;52.242;7.956;2022-12-18T00:03:35;102099.06;;;-10.34;100.00
5574;BME280;2563;52.242;7.956;2022-12-18T00:06:01;102099.81;;;-10.35;100.00
5574;BME280;2563;52.242;7.956;2022-12-18T00:08:27;102095.31;;;-10.39;100.00
5574;BME280;2563;52.242;7.956;2022-12-18T00:10:53;102089.28;;;-10.52;100.00
5574;BME280;2563;52.242;7.956;2022-12-18T00:13:18;102096.66;;;-10.43;100.00
5574;BME280;2563;52.242;7.956;2022-12-18T00:15:43;102087.84;;;-10.39;100.00
5574;BME280;2563;52.242;7.956;2022-12-18T00:18:09;102088.22;;;-10.35;100.00
5574;BME280;2563;52.242;7.956;2022-12-18T00:20:39;102083.78;;;-10.29;100.00
5574;BME280;2563;52.242;7.956;2022-12-18T00:23:06;102087.50;;;-10.23;100.00
5574;BME280;2563;52.242;7.956;2022-12-18T00:25:36;102086.34;;;-10.27;100.00
5574;BME280;2563;52.242;7.956;2022-12-18T00:28:04;102088.66;;;-9.99;100.00
5574;BME280;2563;52.242;7.956;2022-12-18T00:30:30;102092.63;;;-10.12;100.00
5574;BME280;2563;52.242;7.956;2022-12-18T00:32:56;102087.63;;;-10.22;100.00
5574;BME280;2563;52.242;7.956;2022-12-18T00:35:22;102084.25;;;-10.22;100.00
5574;BME280;2563;52.242;7.956;2022-12-18T00:37:47;102086.03;;;-10.01;100.00
5574;BME280;2563;52.242;7.956;2022-12-18T00:40:13;102078.72;;;-9.99;100.00
5574;BME280;2563;52.242;7.956;2022-12-18T00:42:38;102077.94;;;-9.98;100.00
5574;BME280;2563;52.242;7.956;2022-12-18T00:45:28;102090.16;;;-10.01;100.00
5574;BME280;2563;52.242;7.956;2022-12-18T00:47:54;102087.28;;;-10.06;100.00
5574;BME280;2563;52.242;7.956;2022-12-18T00:50:20;102086.16;;;-10.10;100.00
5574;BME280;2563;52.242;7.956;2022-12-18T00:52:46;102086.81;;;-9.92;100.00
5574;BME280;2563;52.242;7.956;2022-12-18T00:55:12;102079.47;;;-9.90;100.00
5574;BME280;2563;52.242;7.956;2022-12-18T00:57:38;102085.56;;;-9.97;100.00
5574;BME280;2563;52.242;7.956;2022-12-18T01:00:05;102084.44;;;-10.00;100.00
5574;BME280;2563;52.242;7.956;2022-12-18T01:02:31;102083.94;;;-10.07;100.00
5574;BME280;2563;52.242;7.956;2022-12-18T01:04:56;102082.69;;;-10.12;100.00
5574;BME280;2563;52.242;7.956;2022-12-18T01:07:22;102086.19;;;-9.89;100.00
5574;BME280;2563;52.242;7.956;2022-12-18T01:09:47;102081.56;;;-10.05;100.00
5574;BME280;2563;52.242;7.956;2022-12-18T01:12:12;102075.06;;;-10.13;100.00
5574;BME280;2563;52.242;7.956;2022-12-18T01:14:38;102076.94;;;-10.11;100.00
5574;BME280;2563;52.242;7.956;2022-12-18T01:17:03;102073.66;;;-10.20;100.00
5574;BME280;2563;52.242;7.956;2022-12-18T01:19:29;102074.19;;;-10.14;100.00
5574;BME280;2563;52.242;7.956;2022-12-18T01:21:55;102074.03;;;-10.25;100.00
5574;BME280;2563;52.242;7.956;2022-12-18T01:24:20;102077.69;;;-10.22;100.00
5574;BME280;2563;52.242;7.956;2022-12-18T01:26:46;102076.81;;;-10.12;100.00
5574;BME280;2563;52.242;7.956;2022-12-18T01:29:11;102083.63;;;-10.20;100.00
5574;BME280;2563;52.242;7.956;2022-12-18T01:31:36;102083.16;;;-10.06;100.00
5574;BME280;2563;52.242;7.956;2022-12-18T01:34:03;102083.69;;;-9.99;100.00
5574;BME280;2563;52.242;7.956;2022-12-18T01:36:31;102084.94;;;-10.04;100.00
5574;BME280;2563;52.242;7.956;2022-12-18T01:38:59;102081.19;;;-10.10;100.00
5574;BME280;2563;52.242;7.956;2022-12-18T01:41:27;102078.47;;;-10.02;100.00
5574;BME280;2563;52.242;7.956;2022-12-18T01:44:55;102080.41;;;-10.19;100.00
5574;BME280;2563;52.242;7.956;2022-12-18T01:49:51;102088.16;;;-10.06;100.00
5574;BME280;2563;52.242;7.956;2022-12-18T01:52:18;102087.41;;;-10.15;100.00
5574;BME280;2563;52.242;7.956;2022-12-18T01:54:44;102089.69;;;-9.97;100.00
5574;BME280;2563;52.242;7.956;2022-12-18T01:57:11;102088.03;;;-10.07;100.00
5574;BME280;2563;52.242;7.956;2022-12-18T01:59:36;102101.75;;;-10.02;100.00
5574;BME280;2563;52.242;7.956;2022-12-18T02:02:04;102104.84;;;-10.04;100.00
5574;BME280;2563;52.242;7.956;2022-12-18T02:04:29;102107.81;;;-10.09;100.00
5574;BME280;2563;52.242;7.956;2022-12-18T02:07:01;102105.69;;;-10.24;100.00
5574;BME280;2563;52.242;7.956;2022-12-18T02:09:39;102100.97;;;-10.32;100.00
5574;BME280;2563;52.242;7.956;2022-12-18T02:12:21;102094.81;;;-10.25;100.00
5574;BME280;2563;52.242;7.956;2022-12-18T02:17:15;102100.81;;;-10.23;100.00
5574;BME280;2563;52.242;7.956;2022-12-18T02:20:01;102101.06;;;-10.30;100.00
5574;BME280;2563;52.242;7.956;2022-12-18T02:25:26;102094.09;;;-10.24;100.00
5574;BME280;2563;52.242;7.956;2022-12-18T02:27:58;102097.19;;;-10.27;100.00
5574;BME280;2563;52.242;7.956;2022-12-18T02:30:26;102100.56;;;-10.36;100.00
5574;BME280;2563;52.242;7.956;2022-12-18T02:32:54;102092.41;;;-10.44;100.00
5574;BME280;2563;52.242;7.956;2022-12-18T02:35:26;102091.22;;;-10.39;100.00
5574;BME280;2563;52.242;7.956;2022-12-18T02:37:53;102096.03;;;-10.51;100.00
5574;BME280;2563;52.242;7.956;2022-12-18T02:40:19;102089.56;;;-10.48;100.00
5574;BME280;2563;52.242;7.956;2022-12-18T02:42:45;102093.94;;;-10.46;100.00
5574;BME280;2563;52.242;7.956;2022-12-18T02:45:10;102085.78;;;-10.54;100.00
5574;BME280;2563;52.242;7.956;2022-12-18T02:47:39;102089.66;;;-10.57;100.00
5574;BME280;2563;52.242;7.956;2022-12-18T02:55:44;102079.00;;;-10.46;100.00
5574;BME280;2563;52.242;7.956;2022-12-18T02:58:20;102072.19;;;-10.38;100.00
5574;BME280;2563;52.242;7.956;2022-12-18T03:01:03;102066.34;;;-10.29;100.00
5574;BME280;2563;52.242;7.956;2022-12-18T03:03:46;102070.34;;;-10.31;100.00
5574;BME280;2563;52.242;7.956;2022-12-18T03:06:33;102065.34;;;-10.31;100.00
5574;BME280;2563;52.242;7.956;2022-12-18T03:09:09;102067.69;;;-10.32;100.00
5574;BME280;2563;52.242;7.956;2022-12-18T03:11:39;102070.94;;;-10.23;100.00
5574;BME280;2563;52.242;7.956;2022-12-18T03:14:38;102075.19;;;-10.12;100.00
5574;BME280;2563;52.242;7.956;2022-12-18T03:17:10;102068.19;;;-10.26;100.00
5574;BME280;2563;52.242;7.956;2022-12-18T03:19:39;102071.94;;;-10.31;100.00
5574;BME280;2563;52.242;7.956;2022-12-18T03:22:07;102088.59;;;-10.40;100.00
5574;BME280;2563;52.242;7.956;2022-12-18T03:24:34;102087.81;;;-10.50;100.00
5574;BME280;2563;52.242;7.956;2022-12-18T03:27:06;102089.66;;;-10.57;100.00
5574;BME280;2563;52.242;7.956;2022-12-18T03:29:36;102090.28;;;-10.50;100.00
5574;BME280;2563;52.242;7.956;2022-12-18T03:32:29;102089.19;;;-10.53;100.00
5574;BME280;2563;52.242;7.956;2022-12-18T03:34:58;102093.03;;;-10.46;100.00
5574;BME280;2563;52.242;7.956;2022-12-18T03:37:26;102083.38;;;-10.43;100.00
5574;BME280;2563;52.242;7.956;2022-12-18T03:39:51;102084.25;;;-10.22;100.00
5574;BME280;2563;52.242;7.956;2022-12-18T03:42:29;102080.88;;;-10.23;100.00
5574;BME280;2563;52.242;7.956;2022-12-18T03:45:03;102079.41;;;-10.21;100.00
5574;BME280;2563;52.242;7.956;2022-12-18T03:48:03;102073.88;;;-9.98;100.00
5574;BME280;2563;52.242;7.956;2022-12-18T03:50:46;102076.22;;;-10.10;100.00
5574;BME280;2563;52.242;7.956;2022-12-18T03:53:17;102068.97;;;-10.17;100.00
5574;BME280;2563;52.242;7.956;2022-12-18T03:55:45;102070.53;;;-10.28;100.00
5574;BME280;2563;52.242;7.956;2022-12-18T03:58:15;102070.41;;;-10.39;100.00
5574;BME280;2563;52.242;7.956;2022-12-18T04:00:43;102073.66;;;-10.40;100.00
5574;BME280;2563;52.242;7.956;2022-12-18T04:03:10;102079.34;;;-10.41;100.00
5574;BME280;2563;52.242;7.956;2022-12-18T04:05:36;102078.38;;;-10.43;100.00
5574;BME280;2563;52.242;7.956;2022-12-18T04:08:02;102071.56;;;-10.36;100.00
5574;BME280;2563;52.242;7.956;2022-12-18T04:10:29;102072.19;;;-10.38;100.00
5574;BME280;2563;52.242;7.956;2022-12-18T04:12:58;102080.13;;;-10.42;100.00
5574;BME280;2563;52.242;7.956;2022-12-18T04:15:23;102076.63;;;-10.44;100.00
5574;BME280;2563;52.242;7.956;2022-12-18T04:17:49;102083.63;;;-10.40;100.00
5574;BME280;2563;52.242;7.956;2022-12-18T04:20:16;102081.09;;;-10.51;100.00
5574;BME280;2563;52.242;7.956;2022-12-18T04:22:42;102084.09;;;-10.44;100.00
5574;BME280;2563;52.242;7.956;2022-12-18T04:25:07;102089.81;;;-10.45;100.00
5574;BME280;2563;52.242;7.956;2022-12-18T04:27:36;102085.16;;;-10.22;100.00
5574;BME280;2563;52.242;7.956;2022-12-18T04:30:01;102077.25;;;-10.47;100.00
5574;BME280;2563;52.242;7.956;2022-12-18T04:32:27;102086.81;;;-10.41;100.00
5574;BME280;2563;52.242;7.956;2022-12-18T04:34:52;102079.34;;;-10.52;100.00
5574;BME280;2563;52.242;7.956;2022-12-18T04:37:17;102083.31;;;-10.54;100.00
5574;BME280;2563;52.242;7.956;2022-12-18T04:39:43;102088.56;;;-10.51;100.00
5574;BME280;2563;52.242;7.956;2022-12-18T04:42:08;102095.50;;;-10.57;100.00
5574;BME280;2563;52.242;7.956;2022-12-18T04:44:33;102090.91;;;-10.52;100.00
5574;BME280;2563;52.242;7.956;2022-12-18T04:46:59;102090.53;;;-10.46;100.00
5574;BME280;2563;52.242;7.956;2022-12-18T04:49:24;102083.28;;;-10.24;100.00
5574;BME280;2563;52.242;7.956;2022-12-18T04:51:50;102077.41;;;-10.25;100.00
5574;BME280;2563;52.242;7.956;2022-12-18T04:54:16;102075.19;;;-10.22;100.00
5574;BME280;2563;52.242;7.956;2022-12-18T04:56:44;102065.00;;;-10.15;100.00
5574;BME280;2563;52.242;7.956;2022-12-18T04:59:10;102066.25;;;-10.10;100.00
5574;BME280;2563;52.242;7.956;2022-12-18T05:01:35;102068.69;;;-10.20;100.00
5574;BME280;2563;52.242;7.956;2022-12-18T05:04:02;102060.25;;;-10.12;100.00
5574;BME280;2563;52.242;7.956;2022-12-18T05:06:27;102060.75;;;-10.16;100.00
5574;BME280;2563;52.242;7.956;2022-12-18T05:08:52;102074.69;;;-10.28;100.00
5574;BME280;2563;52.242;7.956;2022-12-18T05:11:18;102079.03;;;-10.36;100.00
5574;BME280;2563;52.242;7.956;2022-12-18T05:13:44;102074.44;;;-10.31;100.00
5574;BME280;2563;52.242;7.956;2022-12-18T05:16:09;102073.19;;;-10.26;100.00
5574;BME280;2563;52.242;7.956;2022-12-18T05:18:35;102069.59;;;-10.19;100.00
5574;BME280;2563;52.242;7.956;2022-12-18T05:21:00;102074.44;;;-10.11;100.00
5574;BME280;2563;52.242;7.956;2022-12-18T05:23:26;102069.13;;;-10.05;100.00
5574;BME280;2563;52.242;7.956;2022-12-18T05:25:54;102063.00;;;-10.09;100.00
5574;BME280;2563;52.242;7.956;2022-12-18T05:28:20;102067.59;;;-10.34;100.00
5574;BME280;2563;52.242;7.956;2022-12-18T05:30:54;102070.94;;;-10.33;100.00
5574;BME280;2563;52.242;7.956;2022-12-18T05:33:21;102073.41;;;-10.43;100.00
5574;BME280;2563;52.242;7.956;2022-12-18T05:35:55;102075.91;;;-10.43;100.00
5574;BME280;2563;52.242;7.956;2022-12-18T05:38:22;102076.19;;;-10.30;100.00
5574;BME280;2563;52.242;7.956;2022-12-18T05:40:48;102063.09;;;-10.38;100.00
5574;BME280;2563;52.242;7.956;2022-12-18T05:43:14;102062.94;;;-10.50;100.00
5574;BME280;2563;52.242;7.956;2022-12-18T05:45:40;102068.59;;;-10.61;100.00
5574;BME280;2563;52.242;7.956;2022-12-18T05:48:06;102065.06;;;-10.44;100.00
5574;BME280;2563;52.242;7.956;2022-12-18T05:50:38;102073.13;;;-10.46;100.00
5574;BME280;2563;52.242;7.956;2022-12-18T05:53:05;102076.88;;;-10.41;100.00
5574;BME280;2563;52.242;7.956;2022-12-18T05:55:34;102084.22;;;-10.43;100.00
5574;BME280;2563;52.242;7.956;2022-12-18T05:58:00;102089.81;;;-10.45;100.00
5574;BME280;2563;52.242;7.956;2022-12-18T06:00:26;102094.88;;;-10.54;100.00
5574;BME280;2563;52.242;7.956;2022-12-18T06:02:51;102100.72;;;-10.54;100.00
5574;BME280;2563;52.242;7.956;2022-12-18T06:05:17;102109.28;;;-10.60;100.00
5574;BME280;2563;52.242;7.956;2022-12-18T06:07:42;102111.63;;;-10.62;100.00
5574;BME280;2563;52.242;7.956;2022-12-18T06:10:07;102107.47;;;-10.53;100.00
5574;BME280;2563;52.242;7.956;2022-12-18T06:12:33;102104.22;;;-10.52;100.00
5574;BME280;2563;52.242;7.956;2022-12-18T06:14:59;102108.75;;;-10.66;100.00
5574;BME280;2563;52.242;7.956;2022-12-18T06:17:28;102113.72;;;-10.66;100.00
5574;BME280;2563;52.242;7.956;2022-12-18T06:19:54;102116.44;;;-10.74;100.00
5574;BME280;2563;52.242;7.956;2022-12-18T06:22:20;102115.31;;;-10.77;100.00
5574;BME280;2563;52.242;7.956;2022-12-18T06:24:45;102120.47;;;-10.84;100.00
5574;BME280;2563;52.242;7.956;2022-12-18T06:27:10;102119.47;;;-10.86;100.00
5574;BME280;2563;52.242;7.956;2022-12-18T06:29:36;102125.06;;;-10.89;100.00
5574;BME280;2563;52.242;7.956;2022-12-18T06:32:01;102126.19;;;-10.85;100.00
5574;BME280;2563;52.242;7.956;2022-12-18T06:34:26;102128.41;;;-10.69;100.00
5574;BME280;2563;52.242;7.956;2022-12-18T06:36:52;102130.69;;;-10.62;100.00
5574;BME280;2563;52.242;7.956;2022-12-18T06:39:17;102128.91;;;-10.63;100.00
5574;BME280;2563;52.242;7.956;2022-12-18T06:41:43;102133.97;;;-10.53;100.00
5574;BME280;2563;52.242;7.956;2022-12-18T06:44:08;102136.09;;;-10.47;100.00
5574;BME280;2563;52.242;7.956;2022-12-18T06:46:33;102138.50;;;-10.39;100.00
5574;BME280;2563;52.242;7.956;2022-12-18T06:48:59;102148.31;;;-10.40;100.00
5574;BME280;2563;52.242;7.956;2022-12-18T06:51:24;102141.69;;;-10.50;100.00
5574;BME280;2563;52.242;7.956;2022-12-18T06:53:50;102145.06;;;-10.68;100.00
5574;BME280;2563;52.242;7.956;2022-12-18T06:56:15;102148.09;;;-10.81;100.00
5574;BME280;2563;52.242;7.956;2022-12-18T06:58:41;102150.44;;;-10.83;100.00
5574;BME280;2563;52.242;7.956;2022-12-18T07:01:09;102146.47;;;-10.81;100.00
5574;BME280;2563;52.242;7.956;2022-12-18T07:03:36;102149.38;;;-10.95;100.00
5574;BME280;2563;52.242;7.956;2022-12-18T07:06:02;102140.63;;;-11.00;100.00
5574;BME280;2563;52.242;7.956;2022-12-18T07:08:29;102146.81;;;-11.05;100.00
5574;BME280;2563;52.242;7.956;2022-12-18T07:10:55;102149.97;;;-10.98;100.00
5574;BME280;2563;52.242;7.956;2022-12-18T07:13:20;102140.59;;;-10.92;100.00
5574;BME280;2563;52.242;7.956;2022-12-18T07:15:45;102135.88;;;-10.88;100.00
5574;BME280;2563;52.242;7.956;2022-12-18T07:18:11;102135.88;;;-10.88;100.00
5574;BME280;2563;52.242;7.956;2022-12-18T07:20:36;102124.03;;;-10.72;100.00
5574;BME280;2563;52.242;7.956;2022-12-18T07:23:03;102128.28;;;-10.61;100.00
5574;BME280;2563;52.242;7.956;2022-12-18T07:25:28;102125.88;;;-10.51;100.00
5574;BME280;2563;52.242;7.956;2022-12-18T07:27:54;102130.34;;;-10.46;100.00
5574;BME280;2563;52.242;7.956;2022-12-18T07:30:19;102128.56;;;-10.39;100.00
5574;BME280;2563;52.242;7.956;2022-12-18T07:32:45;102130.06;;;-10.31;100.00
5574;BME280;2563;52.242;7.956;2022-12-18T07:35:10;102131.44;;;-10.24;100.00
5574;BME280;2563;52.242;7.956;2022-12-18T07:37:35;102131.16;;;-10.27;100.00
5574;BME280;2563;52.242;7.956;2022-12-18T07:40:01;102118.84;;;-10.25;100.00
5574;BME280;2563;52.242;7.956;2022-12-18T07:42:26;102123.69;;;-10.27;100.00
5574;BME280;2563;52.242;7.956;2022-12-18T07:45:01;102123.59;;;-10.29;100.00
5574;BME280;2563;52.242;7.956;2022-12-18T07:47:27;102126.16;;;-10.27;100.00
5574;BME280;2563;52.242;7.956;2022-12-18T07:49:53;102122.97;;;-10.26;100.00
5574;BME280;2563;52.242;7.956;2022-12-18T07:52:18;102114.66;;;-10.16;100.00
5574;BME280;2563;52.242;7.956;2022-12-18T07:54:43;102111.31;;;-10.07;100.00
5574;BME280;2563;52.242;7.956;2022-12-18T07:57:09;102108.06;;;-10.06;100.00
5574;BME280;2563;52.242;7.956;2022-12-18T07:59:34;102101.66;;;-9.93;100.00
5574;BME280;2563;52.242;7.956;2022-12-18T08:02:00;102099.16;;;-9.93;100.00
5574;BME280;2563;52.242;7.956;2022-12-18T08:04:25;102083.94;;;-9.96;100.00
5574;BME280;2563;52.242;7.956;2022-12-18T08:06:51;102083.69;;;-9.89;100.00
5574;BME280;2563;52.242;7.956;2022-12-18T08:09:16;102085.56;;;-9.87;100.00
5574;BME280;2563;52.242;7.956;2022-12-18T08:11:42;102079.47;;;-9.70;100.00
5574;BME280;2563;52.242;7.956;2022-12-18T08:14:07;102071.13;;;-9.60;100.00
5574;BME280;2563;52.242;7.956;2022-12-18T08:16:32;102070.91;;;-9.43;100.00
5574;BME280;2563;52.242;7.956;2022-12-18T08:18:58;102059.56;;;-9.29;100.00
5574;BME280;2563;52.242;7.956;2022-12-18T08:21:27;102058.16;;;-9.15;100.00
5574;BME280;2563;52.242;7.956;2022-12-18T08:23:53;102066.50;;;-9.04;100.00
5574;BME280;2563;52.242;7.956;2022-12-18T08:26:20;102058.75;;;-8.97;100.00
5574;BME280;2563;52.242;7.956;2022-12-18T08:28:45;102061.06;;;-8.78;100.00
5574;BME280;2563;52.242;7.956;2022-12-18T08:31:11;102060.16;;;-8.68;100.00
5574;BME280;2563;52.242;7.956;2022-12-18T08:33:37;102065.09;;;-8.58;100.00
5574;BME280;2563;52.242;7.956;2022-12-18T08:36:08;102068.53;;;-8.46;100.00
5574;BME280;2563;52.242;7.956;2022-12-18T08:38:33;102073.44;;;-8.36;100.00
5574;BME280;2563;52.242;7.956;2022-12-18T08:41:06;102073.63;;;-8.22;100.00
5574;BME280;2563;52.242;7.956;2022-12-18T08:43:32;102068.84;;;-8.19;100.00
5574;BME280;2563;52.242;7.956;2022-12-18T08:46:17;102076.66;;;-8.04;100.00
5574;BME280;2563;52.242;7.956;2022-12-18T08:48:43;102069.50;;;-8.00;100.00
5574;BME280;2563;52.242;7.956;2022-12-18T08:51:08;102065.75;;;-7.95;100.00
5574;BME280;2563;52.242;7.956;2022-12-18T08:53:37;102046.66;;;-7.82;100.00
5574;BME280;2563;52.242;7.956;2022-12-18T08:56:03;102041.78;;;-7.69;100.00
5574;BME280;2563;52.242;7.956;2022-12-18T08:58:29;102025.09;;;-7.58;100.00
5574;BME280;2563;52.242;7.956;2022-12-18T09:01:06;102018.13;;;-7.51;100.00
5574;BME280;2563;52.242;7.956;2022-12-18T09:03:32;102014.53;;;-7.42;100.00
5574;BME280;2563;52.242;7.956;2022-12-18T09:05:58;102025.22;;;-7.33;100.00
5574;BME280;2563;52.242;7.956;2022-12-18T09:08:24;102026.19;;;-7.31;100.00
5574;BME280;2563;52.242;7.956;2022-12-18T09:10:51;102018.91;;;-7.28;100.00
5574;BME280;2563;52.242;7.956;2022-12-18T09:13:17;102014.88;;;-7.26;100.00
5574;BME280;2563;52.242;7.956;2022-12-18T09:15:47;102017.06;;;-7.19;100.00
5574;BME280;2563;52.242;7.956;2022-12-18T09:18:14;102019.03;;;-7.15;100.00
5574;BME280;2563;52.242;7.956;2022-12-18T09:20:40;102020.22;;;-7.10;100.00
5574;BME280;2563;52.242;7.956;2022-12-18T09:23:05;102019.69;;;-7.06;100.00
5574;BME280;2563;52.242;7.956;2022-12-18T09:25:31;102024.16;;;-7.01;100.00
5574;BME280;2563;52.242;7.956;2022-12-18T09:27:59;102026.31;;;-6.94;100.00
5574;BME280;2563;52.242;7.956;2022-12-18T09:30:25;102030.56;;;-6.93;100.00
5574;BME280;2563;52.242;7.956;2022-12-18T09:32:51;102032.63;;;-6.88;100.00
5574;BME280;2563;52.242;7.956;2022-12-18T09:35:19;102031.63;;;-6.78;100.00
5574;BME280;2563;52.242;7.956;2022-12-18T09:37:44;102037.06;;;-6.72;100.00
5574;BME280;2563;52.242;7.956;2022-12-18T09:40:18;102035.94;;;-6.64;100.00
5574;BME280;2563;52.242;7.956;2022-12-18T09:43:00;102035.53;;;-6.58;100.00
5574;BME280;2563;52.242;7.956;2022-12-18T09:45:27;102030.50;;;-6.46;100.00
5574;BME280;2563;52.242;7.956;2022-12-18T09:47:54;102022.84;;;-6.36;100.00
5574;BME280;2563;52.242;7.956;2022-12-18T09:50:28;102020.53;;;-6.33;100.00
5574;BME280;2563;52.242;7.956;2022-12-18T09:52:58;102028.03;;;-6.33;100.00
5574;BME280;2563;52.242;7.956;2022-12-18T09:55:41;102032.34;;;-6.18;100.00
5574;BME280;2563;52.242;7.956;2022-12-18T09:58:16;102027.97;;;-6.09;100.00
5574;BME280;2563;52.242;7.956;2022-12-18T10:00:44;102014.41;;;-6.00;100.00
5574;BME280;2563;52.242;7.956;2022-12-18T10:03:11;102003.72;;;-5.97;100.00
5574;BME280;2563;52.242;7.956;2022-12-18T10:08:11;101972.13;;;-5.68;100.00
5574;BME280;2563;52.242;7.956;2022-12-18T10:10:50;101957.84;;;-5.56;100.00
5574;BME280;2563;52.242;7.956;2022-12-18T10:13:31;101946.19;;;-5.42;100.00
5574;BME280;2563;52.242;7.956;2022-12-18T10:21:09;101936.81;;;-5.18;100.00
5574;BME280;2563;52.242;7.956;2022-12-18T10:26:18;101915.94;;;-5.04;100.00
5574;BME280;2563;52.242;7.956;2022-12-18T10:28:44;101916.50;;;-4.95;100.00
5574;BME280;2563;52.242;7.956;2022-12-18T10:31:18;101929.00;;;-4.81;100.00
5574;BME280;2563;52.242;7.956;2022-12-18T10:33:44;101928.03;;;-4.70;100.00
5574;BME280;2563;52.242;7.956;2022-12-18T10:36:09;101926.06;;;-4.61;100.00
5574;BME280;2563;52.242;7.956;2022-12-18T10:38:35;101915.59;;;-4.54;100.00
5574;BME280;2563;52.242;7.956;2022-12-18T10:41:06;101917.31;;;-4.53;100.00
5574;BME280;2563;52.242;7.956;2022-12-18T10:43:39;101915.19;;;-4.46;100.00
5574;BME280;2563;52.242;7.956;2022-12-18T10:48:56;101903.50;;;-4.31;100.00
5574;BME280;2563;52.242;7.956;2022-12-18T10:51:33;101891.72;;;-4.17;100.00
5574;BME280;2563;52.242;7.956;2022-12-18T10:54:04;101884.81;;;-4.07;100.00
5574;BME280;2563;52.242;7.956;2022-12-18T10:56:33;101879.16;;;-4.02;100.00
5574;BME280;2563;52.242;7.956;2022-12-18T10:59:07;101867.66;;;-3.99;100.00
5574;BME280;2563;52.242;7.956;2022-12-18T11:04:33;101861.03;;;-3.82;100.00
5574;BME280;2563;52.242;7.956;2022-12-18T11:07:05;101844.53;;;-3.77;100.00
5574;BME280;2563;52.242;7.956;2022-12-18T11:09:31;101840.19;;;-3.65;100.00
5574;BME280;2563;52.242;7.956;2022-12-18T11:12:00;101845.50;;;-3.44;100.00
5574;BME280;2563;52.242;7.956;2022-12-18T11:14:32;101853.75;;;-3.15;100.00
5574;BME280;2563;52.242;7.956;2022-12-18T11:17:00;101849.56;;;-3.14;100.00
5574;BME280;2563;52.242;7.956;2022-12-18T11:19:38;101845.78;;;-3.23;100.00
5574;BME280;2563;52.242;7.956;2022-12-18T11:22:23;101838.28;;;-3.21;100.00
5574;BME280;2563;52.242;7.956;2022-12-18T11:27:37;101841.06;;;-3.16;100.00
5574;BME280;2563;52.242;7.956;2022-12-18T11:30:22;101834.22;;;-3.19;100.00
5574;BME280;2563;52.242;7.956;2022-12-18T11:38:26;101817.06;;;-2.93;100.00
5574;BME280;2563;52.242;7.956;2022-12-18T11:43:55;101799.53;;;-3.08;100.00
5574;BME280;2563;52.242;7.956;2022-12-18T11:46:32;101811.78;;;-3.14;100.00
5574;BME280;2563;52.242;7.956;2022-12-18T11:49:15;101795.97;;;-3.12;100.00
5574;BME280;2563;52.242;7.956;2022-12-18T11:51:53;101790.69;;;-3.16;100.00
5574;BME280;2563;52.242;7.956;2022-12-18T11:54:21;101797.78;;;-3.09;100.00
5574;BME280;2563;52.242;7.956;2022-12-18T11:59:56;101796.06;;;-3.10;100.00
5574;BME280;2563;52.242;7.956;2022-12-18T12:05:40;101794.16;;;-3.14;100.00
5574;BME280;2563;52.242;7.956;2022-12-18T12:16:06;101785.84;;;-3.13;100.00
5574;BME280;2563;52.242;7.956;2022-12-18T12:24:17;101777.88;;;-3.21;100.00
5574;BME280;2563;52.242;7.956;2022-12-18T12:26:55;101781.34;;;-3.19;100.00
5574;BME280;2563;52.242;7.956;2022-12-18T12:39:44;101787.56;;;-3.12;100.00
5574;BME280;2563;52.242;7.956;2022-12-18T12:42:32;101777.34;;;-3.15;100.00
5574;BME280;2563;52.242;7.956;2022-12-18T12:45:28;101778.28;;;-3.13;100.00
5574;BME280;2563;52.242;7.956;2022-12-18T12:47:58;101749.78;;;-3.12;100.00
5574;BME280;2563;52.242;7.956;2022-12-18T12:50:27;101739.09;;;-3.08;100.00
5574;BME280;2563;52.242;7.956;2022-12-18T12:52:55;101739.09;;;-3.08;100.00
5574;BME280;2563;52.242;7.956;2022-12-18T12:55:26;101723.19;;;-3.07;100.00
5574;BME280;2563;52.242;7.956;2022-12-18T12:58:10;101744.41;;;-3.02;100.00
5574;BME280;2563;52.242;7.956;2022-12-18T13:01:08;101733.34;;;-3.06;100.00
5574;BME280;2563;52.242;7.956;2022-12-18T13:06:16;101718.38;;;-3.03;100.00
5574;BME280;2563;52.242;7.956;2022-12-18T13:08:58;101728.53;;;-3.01;100.00
5574;BME280;2563;52.242;7.956;2022-12-18T13:11:34;101729.38;;;-3.01;100.00
5574;BME280;2563;52.242;7.956;2022-12-18T13:14:30;101709.47;;;-2.96;100.00
5574;BME280;2563;52.242;7.956;2022-12-18T13:19:50;101697.16;;;-2.90;100.00
5574;BME280;2563;52.242;7.956;2022-12-18T13:22:25;101698.09;;;-2.88;100.00
5574;BME280;2563;52.242;7.956;2022-12-18T13:24:53;101686.41;;;-2.87;100.00
5574;BME280;2563;52.242;7.956;2022-12-18T13:38:35;101669.28;;;-2.76;100.00
5574;BME280;2563;52.242;7.956;2022-12-18T13:41:24;101674.44;;;-2.73;100.00
5574;BME280;2563;52.242;7.956;2022-12-18T13:43:51;101670.34;;;-2.71;100.00
5574;BME280;2563;52.242;7.956;2022-12-18T13:46:30;101665.31;;;-2.71;100.00
5574;BME280;2563;52.242;7.956;2022-12-18T13:51:35;101660.25;;;-2.71;100.00
5574;BME280;2563;52.242;7.956;2022-12-18T13:56:49;101657.84;;;-2.70;100.00
5574;BME280;2563;52.242;7.956;2022-12-18T13:59:15;101659.53;;;-2.69;100.00
5574;BME280;2563;52.242;7.956;2022-12-18T14:01:48;101656.97;;;-2.70;100.00
5574;BME280;2563;52.242;7.956;2022-12-18T14:04:33;101652.78;;;-2.70;100.00
5574;BME280;2563;52.242;7.956;2022-12-18T14:07:05;101657.84;;;-2.70;100.00
5574;BME280;2563;52.242;7.956;2022-12-18T14:09:37;101656.97;;;-2.70;100.00
5574;BME280;2563;52.242;7.956;2022-12-18T14:12:05;101657.84;;;-2.70;100.00
5574;BME280;2563;52.242;7.956;2022-12-18T14:14:51;101654.38;;;-2.72;100.00
5574;BME280;2563;52.242;7.956;2022-12-18T14:17:17;101651.00;;;-2.72;100.00
5574;BME280;2563;52.242;7.956;2022-12-18T14:19:44;101647.63;;;-2.73;100.00
5574;BME280;2563;52.242;7.956;2022-12-18T14:22:20;101647.44;;;-2.76;100.00
5574;BME280;2563;52.242;7.956;2022-12-18T14:24:46;101638.22;;;-2.75;100.00
5574;BME280;2563;52.242;7.956;2022-12-18T14:27:20;101628.09;;;-2.77;100.00
5574;BME280;2563;52.242;7.956;2022-12-18T14:29:46;101617.94;;;-2.79;100.00
5574;BME280;2563;52.242;7.956;2022-12-18T14:32:14;101633.06;;;-2.79;100.00
5574;BME280;2563;52.242;7.956;2022-12-18T14:34:46;101630.53;;;-2.79;100.00
5574;BME280;2563;52.242;7.956;2022-12-18T14:37:14;101630.53;;;-2.79;100.00
5574;BME280;2563;52.242;7.956;2022-12-18T14:39:39;101630.47;;;-2.80;100.00